Time;durP1;ratioP1;P1;durP2;ratioP2;P2;SDS_P1;SDS_P2;PMS_P1;PMS_P2;Temp;Humidity;BMP_temperature;BMP_pressure;BME280_temperature;BME280_humidity;BME280_pressure;Samples;Min_cycle;Max_cycle;Signal;HPM_P1;HPM_P2
2022/10/28 00:01:54;;;;;;;10.63;4.97;;;14.80;11.00;;;;;;7364414;19;20477;-66
2022/10/28 00:04:24;;;;;;;12.35;5.75;;;14.90;10.40;;;;;;7373384;19;20006;-66
2022/10/28 00:06:54;;;;;;;12.85;5.50;;;14.80;10.40;;;;;;7383656;19;20399;-65
2022/10/28 00:09:24;;;;;;;16.38;6.18;;;14.90;9.70;;;;;;7360667;19;20018;-65
2022/10/28 00:11:54;;;;;;;12.73;5.45;;;14.90;9.60;;;;;;7365044;19;20014;-65
2022/10/28 00:14:26;;;;;;;16.95;5.53;;;14.90;9.60;;;;;;7365600;19;20466;-65
2022/10/28 00:16:56;;;;;;;11.45;5.50;;;14.80;10.50;;;;;;7361845;19;20026;-66
2022/10/28 00:19:25;;;;;;;11.73;5.30;;;14.70;11.00;;;;;;7361606;19;20022;-67
2022/10/28 00:21:55;;;;;;;13.98;5.82;;;14.70;11.00;;;;;;7384892;19;20038;-65
2022/10/28 00:24:25;;;;;;;11.35;5.13;;;14.70;11.00;;;;;;7362886;19;20014;-66
2022/10/28 00:26:55;;;;;;;9.48;5.43;;;14.60;10.90;;;;;;7360686;19;20376;-66
2022/10/28 00:29:28;;;;;;;12.32;5.53;;;14.60;11.50;;;;;;7361147;19;20010;-66
2022/10/28 00:31:58;;;;;;;10.75;5.60;;;14.50;11.60;;;;;;7362777;19;20022;-66
2022/10/28 00:34:28;;;;;;;10.57;5.43;;;14.50;12.30;;;;;;7362948;19;20030;-67
2022/10/28 00:36:57;;;;;;;15.57;5.75;;;14.50;12.90;;;;;;7382810;19;20015;-66
2022/10/28 00:39:28;;;;;;;11.30;5.53;;;14.50;12.70;;;;;;7360405;19;20625;-66
2022/10/28 00:42:02;;;;;;;11.48;5.55;;;14.60;11.90;;;;;;7361954;19;20110;-67
2022/10/28 00:45:05;;;;;;;9.00;5.72;;;14.60;12.60;;;;;;7361761;19;20014;-66
2022/10/28 00:47:43;;;;;;;10.65;5.20;;;14.60;12.10;;;;;;7361254;19;20482;-66
2022/10/28 00:50:21;;;;;;;14.40;5.65;;;14.60;12.30;;;;;;7359745;19;20034;-64
2022/10/28 00:52:55;;;;;;;12.52;5.28;;;14.60;11.90;;;;;;7364579;19;20014;-66
2022/10/28 00:55:26;;;;;;;12.37;5.13;;;14.60;11.90;;;;;;7362821;19;20042;-67
2022/10/28 00:57:56;;;;;;;11.65;5.35;;;14.60;12.30;;;;;;7382024;19;20298;-67
2022/10/28 01:00:27;;;;;;;12.85;5.22;;;14.60;12.50;;;;;;7357666;19;20272;-66
2022/10/28 01:03:00;;;;;;;11.98;5.05;;;14.50;12.70;;;;;;7360597;19;20029;-66
2022/10/28 01:05:31;;;;;;;12.27;5.63;;;14.50;13.10;;;;;;7360568;19;20922;-66
2022/10/28 01:08:03;;;;;;;17.52;5.93;;;14.40;13.60;;;;;;7359214;19;20010;-65
2022/10/28 01:10:49;;;;;;;10.30;5.18;;;14.40;13.90;;;;;;7359208;19;20014;-66
2022/10/28 01:13:28;;;;;;;9.68;5.88;;;14.40;14.20;;;;;;7384239;19;20549;-66
2022/10/28 01:16:06;;;;;;;9.38;5.22;;;14.40;14.20;;;;;;7359497;19;20018;-66
2022/10/28 01:18:48;;;;;;;11.77;5.53;;;14.40;14.80;;;;;;7354829;19;20018;-66
2022/10/28 01:21:45;;;;;;;11.15;5.88;;;14.30;15.30;;;;;;7360441;19;20018;-67
2022/10/28 01:24:28;;;;;;;13.05;5.97;;;14.30;15.80;;;;;;7361273;19;20006;-66
2022/10/28 01:27:27;;;;;;;16.15;6.18;;;14.20;16.10;;;;;;7358963;19;20415;-65
2022/10/28 01:30:13;;;;;;;12.20;5.50;;;14.30;16.20;;;;;;7360212;19;20038;-65
2022/10/28 01:32:57;;;;;;;12.02;5.57;;;14.40;15.60;;;;;;7362658;19;20010;-66
2022/10/28 01:35:31;;;;;;;11.10;5.50;;;14.20;16.10;;;;;;7361048;19;20021;-66
2022/10/28 01:38:15;;;;;;;9.20;5.72;;;14.40;15.30;;;;;;7359869;19;20022;-66
2022/10/28 01:40:51;;;;;;;11.77;5.40;;;14.30;15.20;;;;;;7361780;19;20023;-65
2022/10/28 01:43:26;;;;;;;16.52;5.07;;;14.30;15.00;;;;;;7382803;19;20019;-65
2022/10/28 01:46:02;;;;;;;12.38;6.00;;;14.30;15.30;;;;;;7359287;19;20425;-66
2022/10/28 01:48:40;;;;;;;11.70;5.35;;;14.30;15.20;;;;;;7356743;19;20042;-66
2022/10/28 01:51:17;;;;;;;11.30;5.00;;;14.20;15.00;;;;;;7362090;19;20374;-66
2022/10/28 01:53:50;;;;;;;11.93;5.57;;;14.00;16.70;;;;;;7361924;19;20015;-65
2022/10/28 01:56:26;;;;;;;11.57;5.57;;;13.90;17.70;;;;;;7360209;19;20518;-65
2022/10/28 01:58:58;;;;;;;10.80;5.18;;;13.90;19.20;;;;;;7365400;19;20046;-66
2022/10/28 02:01:30;;;;;;;12.60;5.57;;;13.80;20.10;;;;;;7368372;19;20012;-65
2022/10/28 02:04:03;;;;;;;11.88;5.38;;;13.80;20.50;;;;;;7387762;19;20158;-65
2022/10/28 02:06:34;;;;;;;17.13;5.53;;;13.70;21.20;;;;;;7365992;19;20018;-65
2022/10/28 02:09:16;;;;;;;11.02;5.38;;;13.60;21.50;;;;;;7363247;19;20010;-65
2022/10/28 02:12:08;;;;;;;10.02;5.22;;;13.60;22.70;;;;;;7368766;19;20530;-65
2022/10/28 02:14:57;;;;;;;9.32;5.28;;;13.60;23.10;;;;;;7365889;19;20479;-66
2022/10/28 02:17:36;;;;;;;11.82;5.55;;;13.50;23.60;;;;;;7365645;19;20030;-66
2022/10/28 02:20:15;;;;;;;11.15;5.50;;;13.40;24.40;;;;;;7363260;19;20007;-66
2022/10/28 02:22:51;;;;;;;11.73;5.38;;;13.30;25.20;;;;;;7368967;19;20026;-66
2022/10/28 02:25:24;;;;;;;11.65;6.00;;;13.20;26.70;;;;;;7387586;19;20030;-66
2022/10/28 02:28:00;;;;;;;10.52;6.63;;;13.20;27.00;;;;;;7364963;19;20015;-66
2022/10/28 02:30:35;;;;;;;11.07;6.60;;;13.10;27.70;;;;;;7363561;19;20400;-66
2022/10/28 02:33:09;;;;;;;12.80;6.40;;;13.20;28.00;;;;;;7367923;19;20014;-65
2022/10/28 02:35:46;;;;;;;13.15;6.68;;;13.30;28.50;;;;;;7364231;19;20038;-66
2022/10/28 02:38:19;;;;;;;13.10;6.30;;;13.40;28.90;;;;;;7363609;19;20042;-66
2022/10/28 02:40:54;;;;;;;13.52;6.75;;;13.50;28.20;;;;;;7367638;19;20030;-66
2022/10/28 02:43:25;;;;;;;;;;;13.50;27.80;;;;;;7381174;19;20652;-67
2022/10/28 02:46:00;;;;;;;14.95;6.03;;;13.50;27.30;;;;;;7385710;19;19919;-67
2022/10/28 02:48:33;;;;;;;10.35;5.32;;;13.50;27.30;;;;;;7362353;19;20011;-65
2022/10/28 02:51:10;;;;;;;10.40;5.78;;;13.60;26.10;;;;;;7368038;19;20006;-66
2022/10/28 02:53:49;;;;;;;16.77;6.13;;;13.60;25.60;;;;;;7367688;19;20018;-65
2022/10/28 02:56:21;;;;;;;12.80;5.82;;;13.60;25.70;;;;;;7363780;19;20058;-66
2022/10/28 02:58:51;;;;;;;10.23;5.07;;;13.70;25.00;;;;;;7362224;19;20007;-66
2022/10/28 03:01:21;;;;;;;11.20;5.30;;;13.80;24.60;;;;;;7389112;19;20462;-66
2022/10/28 03:03:50;;;;;;;12.18;5.65;;;13.60;24.50;;;;;;7366377;19;20021;-66
2022/10/28 03:06:23;;;;;;;11.25;5.20;;;13.60;24.60;;;;;;7363933;19;20010;-66
2022/10/28 03:08:54;;;;;;;14.98;5.72;;;13.60;24.50;;;;;;7359944;19;20010;-66
2022/10/28 03:11:23;;;;;;;9.30;4.97;;;13.80;23.40;;;;;;7366872;19;20059;-66
2022/10/28 03:13:53;;;;;;;7.78;5.68;;;13.90;22.10;;;;;;7366823;19;20021;-66
2022/10/28 03:16:25;;;;;;;11.13;5.00;;;13.80;23.50;;;;;;7378584;19;20363;-68
2022/10/28 03:18:55;;;;;;;12.75;5.43;;;13.90;23.00;;;;;;7383331;19;20014;-64
2022/10/28 03:21:27;;;;;;;10.90;5.18;;;13.90;21.80;;;;;;7364307;19;20489;-66
2022/10/28 03:23:57;;;;;;;10.85;5.22;;;14.00;21.20;;;;;;7365878;19;20010;-66
2022/10/28 03:26:27;;;;;;;12.68;5.20;;;14.00;21.00;;;;;;7363399;19;20084;-66
2022/10/28 03:28:57;;;;;;;7.88;4.75;;;14.10;20.50;;;;;;7360596;19;20011;-66
2022/10/28 03:31:26;;;;;;;12.55;5.07;;;14.10;19.40;;;;;;7366232;19;20003;-65
2022/10/28 03:33:56;;;;;;;8.63;4.60;;;14.10;19.10;;;;;;7387600;19;20026;-67
2022/10/28 03:36:29;;;;;;;8.02;4.82;;;14.20;18.70;;;;;;7362706;19;20537;-65
2022/10/28 03:38:59;;;;;;;11.55;5.25;;;14.10;19.50;;;;;;7360383;19;20030;-65
2022/10/28 03:41:28;;;;;;;14.73;4.95;;;14.00;20.00;;;;;;7364832;19;20018;-65
2022/10/28 03:43:58;;;;;;;14.85;4.97;;;14.00;20.30;;;;;;7365852;19;20010;-67
2022/10/28 03:46:28;;;;;;;14.10;5.43;;;14.10;20.20;;;;;;7362286;19;20331;-65
2022/10/28 03:49:03;;;;;;;11.88;5.40;;;14.10;20.20;;;;;;7381626;19;20106;-66
2022/10/28 03:51:35;;;;;;;10.73;5.30;;;14.10;20.40;;;;;;7363621;19;20080;-65
2022/10/28 03:54:05;;;;;;;14.90;5.57;;;14.20;19.50;;;;;;7365338;19;20442;-65
2022/10/28 03:56:35;;;;;;;13.65;6.03;;;14.20;19.20;;;;;;7361588;19;20034;-65
2022/10/28 03:59:05;;;;;;;9.02;4.85;;;14.30;18.60;;;;;;7359061;19;20506;-65
2022/10/28 04:01:35;;;;;;;12.10;4.72;;;14.30;17.90;;;;;;7364426;19;20015;-65
2022/10/28 04:04:05;;;;;;;10.75;4.63;;;14.40;17.00;;;;;;7387004;19;20020;-65
2022/10/28 04:06:37;;;;;;;11.55;5.18;;;14.40;16.80;;;;;;7361745;19;20018;-66
2022/10/28 04:09:07;;;;;;;9.45;4.68;;;14.40;17.10;;;;;;7359430;19;20014;-66
2022/10/28 04:11:37;;;;;;;10.13;4.95;;;14.40;17.20;;;;;;7363791;19;20471;-66
2022/10/28 04:14:07;;;;;;;10.35;4.82;;;14.30;17.50;;;;;;7363971;19;20779;-64
2022/10/28 04:16:36;;;;;;;10.65;5.30;;;14.30;17.10;;;;;;7362235;19;20038;-65
2022/10/28 04:19:06;;;;;;;14.88;4.65;;;14.20;17.90;;;;;;7381890;19;20014;-65
2022/10/28 04:21:38;;;;;;;12.25;5.15;;;14.10;17.80;;;;;;7362433;19;20010;-65
2022/10/28 04:24:08;;;;;;;12.20;5.07;;;14.20;17.80;;;;;;7364610;19;20038;-65
2022/10/28 04:26:38;;;;;;;12.07;4.65;;;14.20;17.90;;;;;;7362231;19;20011;-66
2022/10/28 04:29:08;;;;;;;11.10;4.25;;;14.10;17.50;;;;;;7358342;19;20603;-65
2022/10/28 04:31:38;;;;;;;9.15;4.30;;;14.20;16.60;;;;;;7364958;19;20038;-66
2022/10/28 04:34:07;;;;;;;9.80;4.13;;;14.20;16.50;;;;;;7386668;19;20018;-66
2022/10/28 04:36:40;;;;;;;10.30;4.85;;;14.30;15.70;;;;;;7359998;19;20014;-65
2022/10/28 04:39:11;;;;;;;12.73;4.43;;;14.40;14.90;;;;;;7358991;19;20003;-66
2022/10/28 04:41:41;;;;;;;8.98;4.25;;;14.40;14.10;;;;;;7363180;19;20728;-66
2022/10/28 04:44:11;;;;;;;7.63;4.22;;;14.40;13.90;;;;;;7363398;19;20038;-65
2022/10/28 04:46:40;;;;;;;10.55;4.47;;;14.50;12.90;;;;;;7359861;19;20339;-67
2022/10/28 04:49:10;;;;;;;9.73;4.57;;;14.50;13.10;;;;;;7380337;19;20050;-66
2022/10/28 04:51:42;;;;;;;14.10;4.68;;;14.60;13.20;;;;;;7362066;19;20018;-66
2022/10/28 04:54:12;;;;;;;13.95;5.10;;;14.50;13.90;;;;;;7363926;19;20423;-67
2022/10/28 04:56:42;;;;;;;9.35;4.63;;;14.50;13.80;;;;;;7359978;19;20019;-66
2022/10/28 04:59:12;;;;;;;11.35;5.25;;;14.40;14.30;;;;;;7358797;19;20018;-66
2022/10/28 05:01:42;;;;;;;11.30;4.50;;;14.50;14.80;;;;;;7363052;19;20025;-66
2022/10/28 05:04:11;;;;;;;14.88;4.80;;;14.40;15.90;;;;;;7385740;19;20019;-65
2022/10/28 05:06:45;;;;;;;14.40;5.00;;;14.40;18.00;;;;;;7358921;19;20014;-66
2022/10/28 05:09:15;;;;;;;16.00;5.28;;;14.40;18.00;;;;;;7359397;19;20470;-66
2022/10/28 05:11:44;;;;;;;11.55;4.88;;;14.40;18.00;;;;;;7362548;19;20050;-66
2022/10/28 05:14:14;;;;;;;11.73;5.00;;;14.40;17.10;;;;;;7362215;19;20006;-66
2022/10/28 05:16:44;;;;;;;12.55;5.05;;;14.40;16.30;;;;;;7359191;19;20043;-65
2022/10/28 05:19:13;;;;;;;12.00;5.50;;;14.40;15.80;;;;;;7381455;19;20017;-65
2022/10/28 05:21:46;;;;;;;19.55;5.97;;;14.40;16.70;;;;;;7361191;19;20010;-66
2022/10/28 05:24:16;;;;;;;12.80;6.15;;;14.30;17.90;;;;;;7362390;19;20038;-65
2022/10/28 05:26:45;;;;;;;12.13;5.07;;;14.30;18.30;;;;;;7357182;19;20017;-65
2022/10/28 05:29:17;;;;;;;9.98;5.40;;;14.20;19.60;;;;;;7359075;19;20529;-66
2022/10/28 05:31:47;;;;;;;13.18;5.68;;;14.30;18.50;;;;;;7363639;19;20484;-66
2022/10/28 05:34:16;;;;;;;14.60;5.57;;;14.20;17.90;;;;;;7390577;19;20022;-65
2022/10/28 05:36:49;;;;;;;14.18;5.57;;;14.10;18.40;;;;;;7364441;19;20011;-65
2022/10/28 05:39:19;;;;;;;13.15;5.78;;;14.10;19.80;;;;;;7365291;19;20059;-66
2022/10/28 05:41:49;;;;;;;14.68;6.30;;;14.00;21.10;;;;;;7368757;19;20036;-64
2022/10/28 05:44:19;;;;;;;13.57;5.57;;;14.00;21.40;;;;;;7370739;19;20049;-65
2022/10/28 05:46:49;;;;;;;11.27;5.78;;;14.00;21.70;;;;;;7364312;19;20478;-65
2022/10/28 05:49:19;;;;;;;16.40;6.13;;;13.90;21.90;;;;;;7387737;19;20454;-65
2022/10/28 05:51:51;;;;;;;12.00;6.13;;;13.90;22.20;;;;;;7368651;19;20035;-66
2022/10/28 05:54:21;;;;;;;10.77;6.50;;;13.90;22.00;;;;;;7368723;19;20364;-66
2022/10/28 05:56:51;;;;;;;18.00;6.53;;;13.90;22.70;;;;;;7363231;19;20010;-66
2022/10/28 05:59:21;;;;;;;20.05;7.18;;;13.80;22.90;;;;;;7364329;19;20030;-66
2022/10/28 06:01:51;;;;;;;12.48;7.30;;;13.80;24.30;;;;;;7367631;19;20038;-66
2022/10/28 06:04:20;;;;;;;15.15;7.95;;;13.80;23.30;;;;;;7390662;19;20086;-65
2022/10/28 06:06:56;;;;;;;18.17;7.00;;;13.70;22.90;;;;;;7361725;19;20036;-66
2022/10/28 06:09:28;;;;;;;17.55;6.05;;;13.80;23.30;;;;;;7365169;19;20014;-65
2022/10/28 06:11:58;;;;;;;11.07;5.28;;;13.80;22.80;;;;;;7365830;19;20011;-66
2022/10/28 06:14:28;;;;;;;11.32;5.65;;;13.80;21.50;;;;;;7367886;19;20010;-65
2022/10/28 06:16:58;;;;;;;14.25;5.75;;;13.90;20.10;;;;;;7364484;19;20010;-66
2022/10/28 06:19:27;;;;;;;12.50;6.03;;;14.10;17.90;;;;;;7364099;19;20493;-66
2022/10/28 06:22:00;;;;;;;13.68;5.20;;;14.20;17.00;;;;;;7389612;19;20612;-66
2022/10/28 06:24:30;;;;;;;9.35;5.15;;;14.20;16.00;;;;;;7365517;19;20029;-65
2022/10/28 06:26:59;;;;;;;12.18;5.05;;;14.20;15.50;;;;;;7361874;19;20011;-65
2022/10/28 06:29:31;;;;;;;15.18;5.60;;;14.20;15.20;;;;;;7364058;19;20497;-65
2022/10/28 06:32:01;;;;;;;10.00;5.15;;;14.30;15.30;;;;;;7367644;19;20034;-65
2022/10/28 06:34:31;;;;;;;9.23;4.50;;;14.40;13.90;;;;;;7363594;19;20054;-66
2022/10/28 06:37:03;;;;;;;9.90;5.45;;;14.40;12.60;;;;;;7381583;19;20045;-66
2022/10/28 06:39:33;;;;;;;14.13;5.85;;;14.40;12.80;;;;;;7362466;19;20011;-66
2022/10/28 06:42:03;;;;;;;10.60;4.53;;;14.40;12.60;;;;;;7366971;19;20091;-65
2022/10/28 06:44:32;;;;;;;11.85;5.07;;;14.50;12.20;;;;;;7361962;19;20010;-66
2022/10/28 06:47:02;;;;;;;11.93;4.60;;;14.50;12.00;;;;;;7362413;19;20015;-65
2022/10/28 06:49:32;;;;;;;13.75;4.68;;;14.60;10.90;;;;;;7362529;19;20020;-66
2022/10/28 06:52:04;;;;;;;11.48;4.95;;;14.60;10.90;;;;;;7388243;19;20019;-65
2022/10/28 06:54:34;;;;;;;11.98;4.88;;;14.60;10.40;;;;;;7363901;19;20064;-65
2022/10/28 06:57:04;;;;;;;16.70;4.75;;;14.60;10.90;;;;;;7363284;19;20100;-66
2022/10/28 06:59:34;;;;;;;15.50;5.22;;;14.60;9.50;;;;;;7361100;19;20046;-67
2022/10/28 07:02:03;;;;;;;15.98;5.05;;;14.70;10.00;;;;;;7362442;19;20014;-65
2022/10/28 07:04:35;;;;;;;12.23;4.93;;;14.60;10.90;;;;;;7363147;19;20418;-66
2022/10/28 07:07:07;;;;;;;11.82;5.13;;;14.70;11.00;;;;;;7381899;19;20111;-66
2022/10/28 07:09:38;;;;;;;15.13;5.15;;;14.70;11.00;;;;;;7360468;19;20039;-65
2022/10/28 07:12:09;;;;;;;13.20;5.93;;;14.80;9.00;;;;;;7365148;19;20010;-65
2022/10/28 07:14:39;;;;;;;12.10;5.35;;;14.80;9.20;;;;;;7362847;19;20101;-66
2022/10/28 07:17:09;;;;;;;11.10;4.93;;;14.80;8.50;;;;;;7361856;19;20467;-66
2022/10/28 07:19:38;;;;;;;11.60;4.97;;;14.90;7.60;;;;;;7359965;19;20046;-65
2022/10/28 07:22:10;;;;;;;10.40;4.88;;;14.90;5.80;;;;;;7387903;19;20018;-65
2022/10/28 07:24:40;;;;;;;12.13;4.88;;;15.00;5.70;;;;;;7361466;19;20011;-64
2022/10/28 07:27:10;;;;;;;8.52;4.88;;;14.90;6.70;;;;;;7358303;19;20509;-65
2022/10/28 07:29:40;;;;;;;16.50;5.78;;;14.90;7.30;;;;;;7358957;19;20462;-65
2022/10/28 07:32:10;;;;;;;12.35;5.00;;;14.90;7.40;;;;;;7360773;19;20020;-66
2022/10/28 07:34:40;;;;;;;12.85;5.82;;;14.90;8.40;;;;;;7357402;19;20014;-66
2022/10/28 07:37:14;;;;;;;9.80;5.18;;;15.00;7.60;;;;;;7380675;19;20049;-66
2022/10/28 07:39:43;;;;;;;14.18;5.13;;;15.10;6.60;;;;;;7359052;19;20003;-66
2022/10/28 07:42:13;;;;;;;11.45;5.13;;;15.20;7.30;;;;;;7364278;19;20117;-66
2022/10/28 07:44:43;;;;;;;12.63;5.43;;;15.40;6.90;;;;;;7363152;19;20553;-66
2022/10/28 07:47:13;;;;;;;13.05;5.45;;;15.50;6.10;;;;;;7360602;19;20038;-66
2022/10/28 07:49:42;;;;;;;11.75;5.45;;;15.60;4.10;;;;;;7359722;19;20411;-65
2022/10/28 07:52:15;;;;;;;12.07;5.78;;;15.70;2.90;;;;;;7386939;19;20014;-66
2022/10/28 07:54:45;;;;;;;15.45;6.10;;;15.90;1.90;;;;;;7360332;19;20354;-65
2022/10/28 07:57:14;;;;;;;11.27;5.75;;;16.00;1.30;;;;;;7357384;19;20467;-65
2022/10/28 07:59:44;;;;;;;14.18;5.20;;;16.10;1.00;;;;;;7357532;19;20387;-66
2022/10/28 08:02:19;;;;;;;8.68;4.50;;;16.20;1.00;;;;;;7362326;19;20423;-66
2022/10/28 08:04:48;;;;;;;9.60;4.93;;;16.30;1.00;;;;;;7362316;19;20735;-66
2022/10/28 08:07:21;;;;;;;13.73;6.13;;;16.30;1.00;;;;;;7382190;19;20050;-65
2022/10/28 08:09:53;;;;;;;12.50;5.63;;;16.30;1.00;;;;;;7359604;19;20049;-66
2022/10/28 08:12:23;;;;;;;18.83;5.20;;;16.30;1.00;;;;;;7364718;19;20046;-66
2022/10/28 08:14:53;;;;;;;14.00;4.32;;;16.20;1.00;;;;;;7360444;19;20482;-66
2022/10/28 08:17:23;;;;;;;12.05;4.60;;;16.30;1.00;;;;;;7359160;19;20037;-66
2022/10/28 08:19:52;;;;;;;11.75;4.72;;;16.30;1.00;;;;;;7357337;19;20498;-65
2022/10/28 08:22:25;;;;;;;10.77;4.75;;;16.40;1.00;;;;;;7385806;19;20019;-66
2022/10/28 08:24:54;;;;;;;8.70;4.50;;;16.40;1.00;;;;;;7360311;19;20010;-65
2022/10/28 08:27:24;;;;;;;11.80;4.45;;;16.50;1.00;;;;;;7357147;19;20070;-65
2022/10/28 08:29:54;;;;;;;11.93;4.88;;;16.60;1.00;;;;;;7358055;19;20006;-67
2022/10/28 08:32:24;;;;;;;11.88;3.90;;;16.60;1.00;;;;;;7363898;19;20118;-66
2022/10/28 08:34:54;;;;;;;10.80;4.45;;;16.60;1.00;;;;;;7361647;19;20014;-66
2022/10/28 08:37:26;;;;;;;17.30;4.53;;;16.70;1.00;;;;;;7375618;19;20014;-70
2022/10/28 08:39:56;;;;;;;14.30;5.25;;;16.70;1.00;;;;;;7378384;19;20022;-65
2022/10/28 08:42:36;;;;;;;11.80;5.38;;;16.70;1.00;;;;;;7362787;19;20014;-64
2022/10/28 08:45:33;;;;;;;16.63;5.03;;;16.70;1.00;;;;;;7361436;19;20494;-67
2022/10/28 08:48:12;;;;;;;14.88;4.80;;;16.70;1.00;;;;;;7359820;19;20006;-65
2022/10/28 08:50:48;;;;;;;12.73;4.47;;;16.80;1.00;;;;;;7360195;19;20474;-68
2022/10/28 08:53:25;;;;;;;12.10;4.90;;;16.80;1.00;;;;;;7363650;19;20021;-66
2022/10/28 08:56:01;;;;;;;11.32;4.43;;;16.90;1.00;;;;;;7359399;19;20087;-66
2022/10/28 08:58:35;;;;;;;15.65;4.75;;;17.00;1.00;;;;;;7357895;19;20466;-65
2022/10/28 09:01:08;;;;;;;9.75;4.47;;;17.10;1.00;;;;;;7383332;19;20014;-66
2022/10/28 09:03:41;;;;;;;9.40;4.03;;;17.30;1.00;;;;;;7362486;19;20359;-67
2022/10/28 09:06:12;;;;;;;8.85;4.07;;;17.40;1.00;;;;;;7360248;19;20026;-65
2022/10/28 09:08:48;;;;;;;14.00;4.50;;;17.50;1.00;;;;;;7364578;19;20010;-66
2022/10/28 09:11:38;;;;;;;15.20;4.45;;;17.60;1.00;;;;;;7368847;19;20010;-68
2022/10/28 09:14:27;;;;;;;14.80;4.30;;;17.70;1.00;;;;;;7371076;19;20049;-65
2022/10/28 09:17:08;;;;;;;10.38;4.20;;;17.70;1.00;;;;;;7365699;19;20035;-65
2022/10/28 09:19:46;;;;;;;10.55;3.90;;;17.80;1.00;;;;;;7365178;19;20018;-67
2022/10/28 09:22:28;;;;;;;11.63;4.05;;;17.80;1.00;;;;;;7392670;19;20054;-68
2022/10/28 09:25:03;;;;;;;16.15;5.07;;;17.80;1.00;;;;;;7367574;19;20006;-66
2022/10/28 09:27:48;;;;;;;17.83;6.60;;;17.80;1.00;;;;;;7363655;19;20013;-67
2022/10/28 09:30:36;;;;;;;20.75;5.28;;;17.80;1.00;;;;;;7364346;19;20006;-66
2022/10/28 09:33:19;;;;;;;11.98;4.60;;;17.80;1.00;;;;;;7369776;19;20030;-66
2022/10/28 09:35:51;;;;;;;12.65;4.38;;;17.80;1.00;;;;;;7366400;19;20356;-66
2022/10/28 09:38:29;;;;;;;13.57;4.05;;;17.90;1.00;;;;;;7363758;19;20477;-67
2022/10/28 09:41:05;;;;;;;11.32;3.90;;;18.00;1.00;;;;;;7366184;19;20077;-67
2022/10/28 09:43:38;;;;;;;9.00;3.70;;;18.10;1.00;;;;;;7369156;19;20018;-66
2022/10/28 09:46:14;;;;;;;13.63;3.78;;;18.00;1.00;;;;;;7386087;19;20014;-66
2022/10/28 09:48:47;;;;;;;12.93;6.03;;;18.10;1.00;;;;;;7359422;19;20049;-67
2022/10/28 09:51:26;;;;;;;12.02;3.67;;;18.20;1.00;;;;;;7364229;19;20470;-65
2022/10/28 09:53:58;;;;;;;7.13;3.53;;;18.30;1.00;;;;;;7368073;19;20014;-66
2022/10/28 09:56:32;;;;;;;8.98;3.47;;;18.40;1.00;;;;;;7363703;19;20124;-66
2022/10/28 09:59:04;;;;;;;10.43;3.47;;;18.70;1.00;;;;;;7363327;19;20011;-66
2022/10/28 10:01:35;;;;;;;11.75;3.60;;;18.70;1.00;;;;;;7363842;19;20054;-65
2022/10/28 10:04:18;;;;;;;8.90;3.47;;;18.90;1.00;;;;;;7390040;19;20454;-65
2022/10/28 10:06:51;;;;;;;17.67;3.85;;;19.20;1.00;;;;;;7360971;19;20736;-65
2022/10/28 10:09:25;;;;;;;11.38;3.67;;;19.40;1.00;;;;;;7361618;19;20006;-67
2022/10/28 10:12:01;;;;;;;7.43;3.80;;;19.60;1.00;;;;;;7366917;19;20533;-66
2022/10/28 10:14:33;;;;;;;12.98;4.45;;;19.80;1.00;;;;;;7365962;19;20023;-67
2022/10/28 10:17:07;;;;;;;11.60;3.58;;;19.70;1.00;;;;;;7361312;19;20006;-66
2022/10/28 10:20:02;;;;;;;12.07;4.25;;;19.80;1.00;;;;;;7362958;19;20018;-66
2022/10/28 10:22:32;;;;;;;;;;;19.60;1.00;;;;;;7367622;19;20022;-66
2022/10/28 10:25:03;;;;;;;7.85;4.32;;;19.60;1.00;;;;;;7384326;19;19926;-67
2022/10/28 10:27:35;;;;;;;10.23;3.83;;;19.70;1.00;;;;;;7360962;19;20398;-66
2022/10/28 10:30:06;;;;;;;17.08;4.45;;;19.80;1.00;;;;;;7363682;19;20029;-66
2022/10/28 10:32:36;;;;;;;12.95;3.95;;;19.70;1.00;;;;;;7368756;19;20034;-66
2022/10/28 10:35:16;;;;;;;12.52;4.05;;;19.70;1.00;;;;;;7367228;19;20021;-66
2022/10/28 10:37:48;;;;;;;11.48;3.50;;;19.70;1.00;;;;;;7362151;19;20483;-65
2022/10/28 10:40:25;;;;;;;15.48;3.55;;;19.60;1.00;;;;;;7384863;19;20029;-66
2022/10/28 10:43:15;;;;;;;9.32;3.50;;;19.50;1.00;;;;;;7368583;19;20019;-66
2022/10/28 10:45:53;;;;;;;7.50;3.25;;;19.50;1.00;;;;;;7362701;19;20479;-67
2022/10/28 10:48:23;;;;;;;11.82;3.95;;;19.50;1.00;;;;;;7360245;19;20010;-65
2022/10/28 10:50:56;;;;;;;9.15;4.00;;;19.50;1.00;;;;;;7365991;19;20050;-67
2022/10/28 10:53:27;;;;;;;12.75;3.40;;;19.60;1.00;;;;;;7367320;19;20010;-66
2022/10/28 10:56:00;;;;;;;11.30;3.85;;;19.70;1.00;;;;;;7363173;19;20580;-66
2022/10/28 10:58:34;;;;;;;14.48;4.05;;;19.90;1.00;;;;;;7362345;19;20007;-66
2022/10/28 11:01:08;;;;;;;10.85;3.80;;;19.80;1.00;;;;;;7384279;19;20024;-66
2022/10/28 11:03:46;;;;;;;11.50;4.40;;;19.70;1.00;;;;;;7363566;19;20470;-66
2022/10/28 11:06:22;;;;;;;11.57;4.28;;;19.70;1.00;;;;;;7359741;19;20051;-65
2022/10/28 11:08:59;;;;;;;13.68;4.18;;;19.90;1.00;;;;;;7358869;19;20018;-66
2022/10/28 11:11:37;;;;;;;9.15;4.10;;;19.80;1.00;;;;;;7362902;19;20457;-65
2022/10/28 11:14:24;;;;;;;16.65;4.18;;;19.70;1.00;;;;;;7363948;19;20011;-66
2022/10/28 11:16:55;;;;;;;13.75;4.80;;;19.60;1.00;;;;;;7358996;19;20094;-66
2022/10/28 11:19:30;;;;;;;13.77;4.90;;;19.40;1.00;;;;;;7363305;19;20014;-66
2022/10/28 11:22:25;;;;;;;12.98;4.60;;;19.30;1.00;;;;;;7384344;19;20021;-66
2022/10/28 11:25:21;;;;;;;13.82;4.40;;;19.40;1.00;;;;;;7362228;19;20379;-66
2022/10/28 11:28:00;;;;;;;11.65;4.22;;;19.50;1.00;;;;;;7360248;19;20018;-66
2022/10/28 11:30:48;;;;;;;7.78;3.85;;;19.70;1.00;;;;;;7357022;19;20039;-67
2022/10/28 11:33:21;;;;;;;18.55;4.13;;;19.80;1.00;;;;;;7364491;19;20600;-67
2022/10/28 11:36:11;;;;;;;15.35;3.80;;;19.80;1.00;;;;;;7359880;19;20011;-66
2022/10/28 11:39:04;;;;;;;11.02;3.95;;;19.90;1.00;;;;;;7358725;19;20089;-66
2022/10/28 11:41:46;;;;;;;15.95;3.60;;;19.90;1.00;;;;;;7363448;19;20107;-66
2022/10/28 11:44:29;;;;;;;10.30;3.42;;;19.90;1.00;;;;;;7362936;19;20014;-66
2022/10/28 11:47:15;;;;;;;8.57;3.50;;;19.90;1.00;;;;;;7359230;19;20014;-66
2022/10/28 11:50:11;;;;;;;10.93;4.05;;;19.80;1.00;;;;;;7355429;19;20007;-66
2022/10/28 11:53:08;;;;;;;19.38;5.03;;;19.80;1.00;;;;;;7362884;19;20027;-66
2022/10/28 11:55:44;;;;;;;9.75;4.07;;;19.80;1.00;;;;;;7361147;19;20026;-66
2022/10/28 11:58:22;;;;;;;12.65;4.07;;;19.70;1.00;;;;;;7379780;19;20603;-66
2022/10/28 12:01:09;;;;;;;13.73;3.92;;;19.90;1.00;;;;;;7362428;19;20022;-66
2022/10/28 12:04:10;;;;;;;10.38;3.65;;;19.90;1.00;;;;;;7364435;19;20065;-66
2022/10/28 12:07:00;;;;;;;9.23;3.22;;;20.00;1.00;;;;;;7360437;19;20021;-66
2022/10/28 12:09:41;;;;;;;9.55;3.30;;;20.10;1.00;;;;;;7358300;19;20025;-67
2022/10/28 12:12:20;;;;;;;11.88;4.10;;;20.20;1.00;;;;;;7365280;19;20360;-66
2022/10/28 12:15:00;;;;;;;11.88;4.10;;;20.40;1.00;;;;;;7361262;19;20498;-66
2022/10/28 12:17:37;;;;;;;15.45;3.55;;;20.60;1.00;;;;;;7361598;19;20014;-68
2022/10/28 12:20:16;;;;;;;8.88;3.25;;;20.70;1.00;;;;;;7360144;19;20120;-67
2022/10/28 12:22:50;;;;;;;11.10;5.47;;;21.00;1.00;;;;;;7365326;19;20018;-66
2022/10/28 12:25:25;;;;;;;9.73;3.17;;;21.20;1.00;;;;;;7382590;19;20014;-66
2022/10/28 12:27:59;;;;;;;9.10;3.22;;;21.50;1.00;;;;;;7359850;19;20013;-66
2022/10/28 12:30:33;;;;;;;8.27;3.28;;;21.60;1.00;;;;;;7357855;19;20034;-66
2022/10/28 12:33:09;;;;;;;10.23;3.37;;;21.60;1.00;;;;;;7363610;19;20428;-66
2022/10/28 12:35:46;;;;;;;8.60;3.45;;;21.60;1.00;;;;;;7357550;19;20039;-67
2022/10/28 12:38:21;;;;;;;6.35;3.05;;;21.80;1.00;;;;;;7356174;19;20074;-65
2022/10/28 12:40:57;;;;;;;9.43;3.08;;;22.00;1.00;;;;;;7359835;19;20037;-66
2022/10/28 12:43:32;;;;;;;13.48;3.15;;;22.30;1.00;;;;;;7361227;19;20072;-67
2022/10/28 12:46:03;;;;;;;13.73;3.25;;;22.50;1.00;;;;;;7379245;19;20042;-67
2022/10/28 12:48:41;;;;;;;11.52;3.70;;;22.60;1.00;;;;;;7355554;19;20880;-67
2022/10/28 12:51:18;;;;;;;7.68;3.33;;;22.60;1.00;;;;;;7354848;19;20007;-66
2022/10/28 12:53:58;;;;;;;8.82;2.92;;;22.60;1.00;;;;;;7359288;19;20053;-67
2022/10/28 12:56:32;;;;;;;5.40;2.45;;;22.50;1.00;;;;;;7355453;19;20491;-67
2022/10/28 12:59:07;;;;;;;12.45;3.05;;;22.40;1.00;;;;;;7354551;19;20014;-66
2022/10/28 13:01:38;;;;;;;9.48;2.78;;;22.50;1.00;;;;;;7359344;19;20041;-66
2022/10/28 13:04:08;;;;;;;8.25;2.70;;;22.50;1.00;;;;;;7382430;19;20021;-66
2022/10/28 13:07:00;;;;;;;12.27;3.85;;;22.50;1.00;;;;;;7354171;19;20023;-66
2022/10/28 13:09:51;;;;;;;10.38;3.50;;;22.50;1.00;;;;;;7356770;19;20054;-65
2022/10/28 13:12:50;;;;;;;12.43;3.20;;;22.50;1.00;;;;;;7362106;19;20043;-66
2022/10/28 13:15:49;;;;;;;14.02;3.85;;;22.50;1.00;;;;;;7360549;19;20010;-67
2022/10/28 13:18:58;;;;;;;9.70;3.13;;;22.50;1.00;;;;;;7354049;19;20022;-66
2022/10/28 13:22:01;;;;;;;9.40;4.13;;;22.30;1.00;;;;;;7357392;19;20781;-66